sensor_id;sensor_type;location;lat;lon;timestamp;temperature;humidity
9179;DHT22;71287;48.414;11.478;2023-12-22T00:01:44;3.70;99.90
9179;DHT22;71287;48.414;11.478;2023-12-22T00:04:10;3.50;99.90
9179;DHT22;71287;48.414;11.478;2023-12-22T00:06:40;3.50;99.90
9179;DHT22;71287;48.414;11.478;2023-12-22T00:09:08;3.40;99.90
9179;DHT22;71287;48.414;11.478;2023-12-22T00:11:34;3.40;99.90
9179;DHT22;71287;48.414;11.478;2023-12-22T00:14:01;3.20;99.90
9179;DHT22;71287;48.414;11.478;2023-12-22T00:16:28;3.20;99.90
9179;DHT22;71287;48.414;11.478;2023-12-22T00:18:55;3.20;99.90
9179;DHT22;71287;48.414;11.478;2023-12-22T00:21:21;3.20;99.90
9179;DHT22;71287;48.414;11.478;2023-12-22T00:23:48;3.20;99.90
9179;DHT22;71287;48.414;11.478;2023-12-22T00:26:16;3.20;99.90
9179;DHT22;71287;48.414;11.478;2023-12-22T00:28:43;3.20;99.90
9179;DHT22;71287;48.414;11.478;2023-12-22T00:31:10;3.30;99.90
9179;DHT22;71287;48.414;11.478;2023-12-22T00:33:37;3.30;99.90
9179;DHT22;71287;48.414;11.478;2023-12-22T00:36:04;3.30;99.90
9179;DHT22;71287;48.414;11.478;2023-12-22T00:38:31;3.40;99.90
9179;DHT22;71287;48.414;11.478;2023-12-22T00:40:58;3.40;99.90
9179;DHT22;71287;48.414;11.478;2023-12-22T00:43:26;3.50;99.90
9179;DHT22;71287;48.414;11.478;2023-12-22T00:45:53;3.50;99.90
9179;DHT22;71287;48.414;11.478;2023-12-22T00:48:19;3.50;99.90
9179;DHT22;71287;48.414;11.478;2023-12-22T00:50:46;3.60;99.90
9179;DHT22;71287;48.414;11.478;2023-12-22T00:53:13;3.60;99.90
9179;DHT22;71287;48.414;11.478;2023-12-22T00:55:40;3.70;99.90
9179;DHT22;71287;48.414;11.478;2023-12-22T00:58:06;3.70;99.90
9179;DHT22;71287;48.414;11.478;2023-12-22T01:00:34;3.80;99.90
9179;DHT22;71287;48.414;11.478;2023-12-22T01:03:01;3.80;99.90
9179;DHT22;71287;48.414;11.478;2023-12-22T01:05:28;3.90;99.90
9179;DHT22;71287;48.414;11.478;2023-12-22T01:07:55;3.90;99.90
9179;DHT22;71287;48.414;11.478;2023-12-22T01:10:21;3.90;99.90
9179;DHT22;71287;48.414;11.478;2023-12-22T01:12:48;4.00;99.90
9179;DHT22;71287;48.414;11.478;2023-12-22T01:15:15;4.00;99.90
9179;DHT22;71287;48.414;11.478;2023-12-22T01:17:43;4.00;99.90
9179;DHT22;71287;48.414;11.478;2023-12-22T01:20:11;4.00;99.90
9179;DHT22;71287;48.414;11.478;2023-12-22T01:22:37;4.10;99.90
9179;DHT22;71287;48.414;11.478;2023-12-22T01:25:04;4.10;99.90
9179;DHT22;71287;48.414;11.478;2023-12-22T01:27:31;4.10;99.90
9179;DHT22;71287;48.414;11.478;2023-12-22T01:29:58;4.10;99.90
9179;DHT22;71287;48.414;11.478;2023-12-22T01:32:25;4.10;99.90
9179;DHT22;71287;48.414;11.478;2023-12-22T01:34:53;4.20;99.90
9179;DHT22;71287;48.414;11.478;2023-12-22T01:37:19;4.20;99.90
9179;DHT22;71287;48.414;11.478;2023-12-22T01:39:48;4.20;99.90
9179;DHT22;71287;48.414;11.478;2023-12-22T01:42:15;4.20;99.90
9179;DHT22;71287;48.414;11.478;2023-12-22T01:44:42;4.30;99.90
9179;DHT22;71287;48.414;11.478;2023-12-22T01:47:08;4.30;99.90
9179;DHT22;71287;48.414;11.478;2023-12-22T01:49:35;4.30;99.90
9179;DHT22;71287;48.414;11.478;2023-12-22T01:52:04;4.30;99.90
9179;DHT22;71287;48.414;11.478;2023-12-22T01:54:31;4.30;99.90
9179;DHT22;71287;48.414;11.478;2023-12-22T01:56:57;4.30;99.90
9179;DHT22;71287;48.414;11.478;2023-12-22T01:59:25;4.30;99.90
9179;DHT22;71287;48.414;11.478;2023-12-22T02:01:52;4.30;99.90
9179;DHT22;71287;48.414;11.478;2023-12-22T02:04:19;4.30;99.90
9179;DHT22;71287;48.414;11.478;2023-12-22T02:06:47;4.20;99.90
9179;DHT22;71287;48.414;11.478;2023-12-22T02:09:15;4.20;99.90
9179;DHT22;71287;48.414;11.478;2023-12-22T02:11:41;4.20;99.90
9179;DHT22;71287;48.414;11.478;2023-12-22T02:14:08;4.10;99.90
9179;DHT22;71287;48.414;11.478;2023-12-22T02:16:40;4.00;99.90
9179;DHT22;71287;48.414;11.478;2023-12-22T02:19:15;4.00;99.90
9179;DHT22;71287;48.414;11.478;2023-12-22T02:22:02;3.90;99.90
9179;DHT22;71287;48.414;11.478;2023-12-22T02:24:31;3.80;99.90
9179;DHT22;71287;48.414;11.478;2023-12-22T02:27:03;3.80;99.90
9179;DHT22;71287;48.414;11.478;2023-12-22T02:29:32;3.70;99.90
9179;DHT22;71287;48.414;11.478;2023-12-22T02:32:05;3.70;99.90
9179;DHT22;71287;48.414;11.478;2023-12-22T02:34:35;3.70;99.90
9179;DHT22;71287;48.414;11.478;2023-12-22T02:37:05;3.70;99.90
9179;DHT22;71287;48.414;11.478;2023-12-22T02:39:33;3.70;99.90
9179;DHT22;71287;48.414;11.478;2023-12-22T02:42:00;3.60;99.90
9179;DHT22;71287;48.414;11.478;2023-12-22T02:44:28;3.70;99.90
9179;DHT22;71287;48.414;11.478;2023-12-22T02:46:55;3.60;99.90
9179;DHT22;71287;48.414;11.478;2023-12-22T02:49:21;3.60;99.90
9179;DHT22;71287;48.414;11.478;2023-12-22T02:51:48;3.60;99.90
9179;DHT22;71287;48.414;11.478;2023-12-22T02:54:15;3.60;99.90
9179;DHT22;71287;48.414;11.478;2023-12-22T02:56:45;3.70;99.90
9179;DHT22;71287;48.414;11.478;2023-12-22T02:59:12;3.70;99.90
9179;DHT22;71287;48.414;11.478;2023-12-22T03:01:39;3.70;99.90
9179;DHT22;71287;48.414;11.478;2023-12-22T03:04:06;3.80;99.90
9179;DHT22;71287;48.414;11.478;2023-12-22T03:06:32;3.80;99.90
9179;DHT22;71287;48.414;11.478;2023-12-22T03:08:59;3.80;99.90
9179;DHT22;71287;48.414;11.478;2023-12-22T03:11:26;3.80;99.90
9179;DHT22;71287;48.414;11.478;2023-12-22T03:13:54;3.90;99.90
9179;DHT22;71287;48.414;11.478;2023-12-22T03:16:21;3.90;99.90
9179;DHT22;71287;48.414;11.478;2023-12-22T03:18:47;3.90;99.90
9179;DHT22;71287;48.414;11.478;2023-12-22T03:21:16;3.90;99.90
9179;DHT22;71287;48.414;11.478;2023-12-22T03:23:44;3.90;99.90
9179;DHT22;71287;48.414;11.478;2023-12-22T03:26:11;3.90;99.90
9179;DHT22;71287;48.414;11.478;2023-12-22T03:28:37;3.90;99.90
9179;DHT22;71287;48.414;11.478;2023-12-22T03:31:06;3.90;99.90
9179;DHT22;71287;48.414;11.478;2023-12-22T03:33:33;3.90;99.90
9179;DHT22;71287;48.414;11.478;2023-12-22T03:35:59;4.00;99.90
9179;DHT22;71287;48.414;11.478;2023-12-22T03:38:26;4.00;99.90
9179;DHT22;71287;48.414;11.478;2023-12-22T03:40:53;4.10;99.90
9179;DHT22;71287;48.414;11.478;2023-12-22T03:43:20;4.10;99.90
9179;DHT22;71287;48.414;11.478;2023-12-22T03:45:46;4.10;99.90
9179;DHT22;71287;48.414;11.478;2023-12-22T03:48:14;4.10;99.90
9179;DHT22;71287;48.414;11.478;2023-12-22T03:50:41;4.10;99.90
9179;DHT22;71287;48.414;11.478;2023-12-22T03:53:08;4.10;99.90
9179;DHT22;71287;48.414;11.478;2023-12-22T03:55:35;4.10;99.90
9179;DHT22;71287;48.414;11.478;2023-12-22T03:58:01;4.00;99.90
9179;DHT22;71287;48.414;11.478;2023-12-22T04:00:30;4.00;99.90
9179;DHT22;71287;48.414;11.478;2023-12-22T04:02:57;3.90;99.90
9179;DHT22;71287;48.414;11.478;2023-12-22T04:05:25;3.90;99.90
9179;DHT22;71287;48.414;11.478;2023-12-22T04:07:51;3.90;99.90
9179;DHT22;71287;48.414;11.478;2023-12-22T04:10:18;3.90;99.90
9179;DHT22;71287;48.414;11.478;2023-12-22T04:12:45;3.90;99.90
9179;DHT22;71287;48.414;11.478;2023-12-22T04:15:12;3.90;99.90
9179;DHT22;71287;48.414;11.478;2023-12-22T04:17:39;3.90;99.90
9179;DHT22;71287;48.414;11.478;2023-12-22T04:20:07;4.00;99.90
9179;DHT22;71287;48.414;11.478;2023-12-22T04:22:35;4.00;99.90
9179;DHT22;71287;48.414;11.478;2023-12-22T04:25:02;4.10;99.90
9179;DHT22;71287;48.414;11.478;2023-12-22T04:27:29;4.10;99.90
9179;DHT22;71287;48.414;11.478;2023-12-22T04:29:55;4.10;99.90
9179;DHT22;71287;48.414;11.478;2023-12-22T04:32:22;4.20;99.90
9179;DHT22;71287;48.414;11.478;2023-12-22T04:34:49;4.20;99.90
9179;DHT22;71287;48.414;11.478;2023-12-22T04:37:15;4.30;99.90
9179;DHT22;71287;48.414;11.478;2023-12-22T04:39:43;4.30;99.90
9179;DHT22;71287;48.414;11.478;2023-12-22T04:42:10;4.30;99.90
9179;DHT22;71287;48.414;11.478;2023-12-22T04:44:37;4.40;99.90
9179;DHT22;71287;48.414;11.478;2023-12-22T04:47:04;4.40;99.90
9179;DHT22;71287;48.414;11.478;2023-12-22T04:49:31;4.50;99.90
9179;DHT22;71287;48.414;11.478;2023-12-22T04:51:57;4.60;99.90
9179;DHT22;71287;48.414;11.478;2023-12-22T04:54:24;4.60;99.90
9179;DHT22;71287;48.414;11.478;2023-12-22T04:56:53;4.70;99.90
9179;DHT22;71287;48.414;11.478;2023-12-22T04:59:19;4.70;99.90
9179;DHT22;71287;48.414;11.478;2023-12-22T05:01:46;4.80;99.90
9179;DHT22;71287;48.414;11.478;2023-12-22T05:04:13;4.80;99.90
9179;DHT22;71287;48.414;11.478;2023-12-22T05:06:39;4.90;99.90
9179;DHT22;71287;48.414;11.478;2023-12-22T05:09:06;4.90;99.90
9179;DHT22;71287;48.414;11.478;2023-12-22T05:11:33;4.90;99.90
9179;DHT22;71287;48.414;11.478;2023-12-22T05:14:01;4.80;99.90
9179;DHT22;71287;48.414;11.478;2023-12-22T05:16:28;4.60;99.90
9179;DHT22;71287;48.414;11.478;2023-12-22T05:18:56;4.50;99.90
9179;DHT22;71287;48.414;11.478;2023-12-22T05:21:23;4.50;99.90
9179;DHT22;71287;48.414;11.478;2023-12-22T05:23:50;4.40;99.90
9179;DHT22;71287;48.414;11.478;2023-12-22T05:26:17;4.30;99.90
9179;DHT22;71287;48.414;11.478;2023-12-22T05:28:44;4.10;99.90
9179;DHT22;71287;48.414;11.478;2023-12-22T05:31:13;4.00;99.90
9179;DHT22;71287;48.414;11.478;2023-12-22T05:33:39;3.90;99.90
9179;DHT22;71287;48.414;11.478;2023-12-22T05:36:07;3.80;99.90
9179;DHT22;71287;48.414;11.478;2023-12-22T05:38:37;3.70;99.90
9179;DHT22;71287;48.414;11.478;2023-12-22T05:41:04;3.70;99.90
9179;DHT22;71287;48.414;11.478;2023-12-22T05:43:30;3.70;99.90
9179;DHT22;71287;48.414;11.478;2023-12-22T05:45:57;3.60;99.90
9179;DHT22;71287;48.414;11.478;2023-12-22T05:48:25;3.60;99.90
9179;DHT22;71287;48.414;11.478;2023-12-22T05:50:53;3.60;99.90
9179;DHT22;71287;48.414;11.478;2023-12-22T05:53:19;3.70;99.90
9179;DHT22;71287;48.414;11.478;2023-12-22T05:55:46;3.70;99.90
9179;DHT22;71287;48.414;11.478;2023-12-22T05:58:14;3.80;99.90
9179;DHT22;71287;48.414;11.478;2023-12-22T06:00:41;3.90;99.90
9179;DHT22;71287;48.414;11.478;2023-12-22T06:03:08;3.90;99.90
9179;DHT22;71287;48.414;11.478;2023-12-22T06:05:36;3.90;99.90
9179;DHT22;71287;48.414;11.478;2023-12-22T06:08:04;4.00;99.90
9179;DHT22;71287;48.414;11.478;2023-12-22T06:10:31;4.00;99.90
9179;DHT22;71287;48.414;11.478;2023-12-22T06:12:57;4.10;99.90
9179;DHT22;71287;48.414;11.478;2023-12-22T06:15:28;4.10;99.90
9179;DHT22;71287;48.414;11.478;2023-12-22T06:17:55;4.20;99.90
9179;DHT22;71287;48.414;11.478;2023-12-22T06:20:23;4.30;99.90
9179;DHT22;71287;48.414;11.478;2023-12-22T06:22:51;4.40;99.90
9179;DHT22;71287;48.414;11.478;2023-12-22T06:25:18;4.50;99.90
9179;DHT22;71287;48.414;11.478;2023-12-22T06:27:45;4.50;99.90
9179;DHT22;71287;48.414;11.478;2023-12-22T06:30:13;4.50;99.90
9179;DHT22;71287;48.414;11.478;2023-12-22T06:32:40;4.50;99.90
9179;DHT22;71287;48.414;11.478;2023-12-22T06:35:07;4.60;99.90
9179;DHT22;71287;48.414;11.478;2023-12-22T06:37:36;4.60;99.90
9179;DHT22;71287;48.414;11.478;2023-12-22T06:40:05;4.60;99.90
9179;DHT22;71287;48.414;11.478;2023-12-22T06:42:32;4.70;99.90
9179;DHT22;71287;48.414;11.478;2023-12-22T06:44:58;4.70;99.90
9179;DHT22;71287;48.414;11.478;2023-12-22T06:47:25;4.70;99.90
9179;DHT22;71287;48.414;11.478;2023-12-22T06:49:52;4.70;99.90
9179;DHT22;71287;48.414;11.478;2023-12-22T06:52:19;4.80;99.90
9179;DHT22;71287;48.414;11.478;2023-12-22T06:54:46;4.80;99.90
9179;DHT22;71287;48.414;11.478;2023-12-22T06:57:14;4.90;99.90
9179;DHT22;71287;48.414;11.478;2023-12-22T06:59:42;4.90;99.90
9179;DHT22;71287;48.414;11.478;2023-12-22T07:02:09;4.90;99.90
9179;DHT22;71287;48.414;11.478;2023-12-22T07:05:00;4.90;99.90
9179;DHT22;71287;48.414;11.478;2023-12-22T07:07:31;4.90;99.90
9179;DHT22;71287;48.414;11.478;2023-12-22T07:09:58;4.80;99.90
9179;DHT22;71287;48.414;11.478;2023-12-22T07:12:26;4.70;99.90
9179;DHT22;71287;48.414;11.478;2023-12-22T07:14:53;4.60;99.90
9179;DHT22;71287;48.414;11.478;2023-12-22T07:17:20;4.40;99.90
9179;DHT22;71287;48.414;11.478;2023-12-22T07:19:46;4.30;99.90
9179;DHT22;71287;48.414;11.478;2023-12-22T07:22:13;4.30;99.90
9179;DHT22;71287;48.414;11.478;2023-12-22T07:24:41;4.20;99.90
9179;DHT22;71287;48.414;11.478;2023-12-22T07:27:08;4.20;99.90
9179;DHT22;71287;48.414;11.478;2023-12-22T07:29:36;4.20;99.90
9179;DHT22;71287;48.414;11.478;2023-12-22T07:32:04;4.20;99.90
9179;DHT22;71287;48.414;11.478;2023-12-22T07:34:31;4.20;99.90
9179;DHT22;71287;48.414;11.478;2023-12-22T07:36:58;4.30;99.90
9179;DHT22;71287;48.414;11.478;2023-12-22T07:39:24;4.30;99.90
9179;DHT22;71287;48.414;11.478;2023-12-22T07:41:51;4.20;99.90
9179;DHT22;71287;48.414;11.478;2023-12-22T07:44:18;4.20;99.90
9179;DHT22;71287;48.414;11.478;2023-12-22T07:46:55;4.20;99.90
9179;DHT22;71287;48.414;11.478;2023-12-22T07:49:22;4.20;99.90
9179;DHT22;71287;48.414;11.478;2023-12-22T07:51:50;4.10;99.90
9179;DHT22;71287;48.414;11.478;2023-12-22T07:54:17;4.10;99.90
9179;DHT22;71287;48.414;11.478;2023-12-22T07:56:44;4.10;99.90
9179;DHT22;71287;48.414;11.478;2023-12-22T07:59:11;4.10;99.90
9179;DHT22;71287;48.414;11.478;2023-12-22T08:01:38;4.20;99.90
9179;DHT22;71287;48.414;11.478;2023-12-22T08:04:07;4.20;99.90
9179;DHT22;71287;48.414;11.478;2023-12-22T08:06:35;4.20;99.90
9179;DHT22;71287;48.414;11.478;2023-12-22T08:09:02;4.20;99.90
9179;DHT22;71287;48.414;11.478;2023-12-22T08:11:28;4.30;99.90
9179;DHT22;71287;48.414;11.478;2023-12-22T08:13:55;4.30;99.90
9179;DHT22;71287;48.414;11.478;2023-12-22T08:16:22;4.60;99.90
9179;DHT22;71287;48.414;11.478;2023-12-22T08:18:48;4.90;99.90
9179;DHT22;71287;48.414;11.478;2023-12-22T08:21:17;5.10;99.90
9179;DHT22;71287;48.414;11.478;2023-12-22T08:23:44;5.20;99.90
9179;DHT22;71287;48.414;11.478;2023-12-22T08:26:11;5.10;99.90
9179;DHT22;71287;48.414;11.478;2023-12-22T08:28:39;5.10;99.90
9179;DHT22;71287;48.414;11.478;2023-12-22T08:31:06;5.10;99.90
9179;DHT22;71287;48.414;11.478;2023-12-22T08:33:33;5.00;99.90
9179;DHT22;71287;48.414;11.478;2023-12-22T08:36:00;5.00;99.90
9179;DHT22;71287;48.414;11.478;2023-12-22T08:38:28;5.00;99.90
9179;DHT22;71287;48.414;11.478;2023-12-22T08:40:54;5.00;99.90
9179;DHT22;71287;48.414;11.478;2023-12-22T08:43:21;4.90;99.90
9179;DHT22;71287;48.414;11.478;2023-12-22T08:45:48;5.00;99.90
9179;DHT22;71287;48.414;11.478;2023-12-22T08:48:15;5.00;99.90
9179;DHT22;71287;48.414;11.478;2023-12-22T08:50:41;5.20;99.90
9179;DHT22;71287;48.414;11.478;2023-12-22T08:53:08;5.40;99.90
9179;DHT22;71287;48.414;11.478;2023-12-22T08:55:36;5.40;99.90
9179;DHT22;71287;48.414;11.478;2023-12-22T08:58:03;5.40;99.90
9179;DHT22;71287;48.414;11.478;2023-12-22T09:00:30;5.50;99.90
9179;DHT22;71287;48.414;11.478;2023-12-22T09:02:57;5.60;99.90
9179;DHT22;71287;48.414;11.478;2023-12-22T09:05:23;5.60;99.90
9179;DHT22;71287;48.414;11.478;2023-12-22T09:07:50;5.70;99.90
9179;DHT22;71287;48.414;11.478;2023-12-22T09:10:17;5.70;99.90
9179;DHT22;71287;48.414;11.478;2023-12-22T09:12:45;5.80;99.90
9179;DHT22;71287;48.414;11.478;2023-12-22T09:15:12;5.90;99.90
9179;DHT22;71287;48.414;11.478;2023-12-22T09:17:39;6.10;99.90
9179;DHT22;71287;48.414;11.478;2023-12-22T09:20:07;6.30;99.90
9179;DHT22;71287;48.414;11.478;2023-12-22T09:22:34;6.30;99.90
9179;DHT22;71287;48.414;11.478;2023-12-22T09:25:01;6.30;99.90
9179;DHT22;71287;48.414;11.478;2023-12-22T09:27:28;6.40;99.90
9179;DHT22;71287;48.414;11.478;2023-12-22T09:29:58;6.40;99.90
9179;DHT22;71287;48.414;11.478;2023-12-22T09:32:24;6.50;99.90
9179;DHT22;71287;48.414;11.478;2023-12-22T09:34:52;6.50;99.90
9179;DHT22;71287;48.414;11.478;2023-12-22T09:37:20;6.50;99.90
9179;DHT22;71287;48.414;11.478;2023-12-22T09:39:47;6.60;99.90
9179;DHT22;71287;48.414;11.478;2023-12-22T09:42:14;6.50;99.90
9179;DHT22;71287;48.414;11.478;2023-12-22T09:44:42;6.60;99.90
9179;DHT22;71287;48.414;11.478;2023-12-22T09:47:11;6.60;99.90
9179;DHT22;71287;48.414;11.478;2023-12-22T09:49:39;6.70;99.90
9179;DHT22;71287;48.414;11.478;2023-12-22T09:52:07;6.70;99.90
9179;DHT22;71287;48.414;11.478;2023-12-22T09:54:36;6.70;99.90
9179;DHT22;71287;48.414;11.478;2023-12-22T09:57:05;6.70;99.90
9179;DHT22;71287;48.414;11.478;2023-12-22T09:59:32;6.70;99.90
9179;DHT22;71287;48.414;11.478;2023-12-22T10:02:00;6.70;99.90
9179;DHT22;71287;48.414;11.478;2023-12-22T10:04:30;6.70;99.90
9179;DHT22;71287;48.414;11.478;2023-12-22T10:06:58;6.70;99.90
9179;DHT22;71287;48.414;11.478;2023-12-22T10:09:26;6.70;99.90
9179;DHT22;71287;48.414;11.478;2023-12-22T10:11:54;6.60;99.90
9179;DHT22;71287;48.414;11.478;2023-12-22T10:14:23;6.60;99.90
9179;DHT22;71287;48.414;11.478;2023-12-22T10:16:52;6.60;99.90
9179;DHT22;71287;48.414;11.478;2023-12-22T10:19:20;6.60;99.90
9179;DHT22;71287;48.414;11.478;2023-12-22T10:21:49;6.50;99.90
9179;DHT22;71287;48.414;11.478;2023-12-22T10:24:38;6.50;99.90
9179;DHT22;71287;48.414;11.478;2023-12-22T10:27:08;6.40;99.90
9179;DHT22;71287;48.414;11.478;2023-12-22T10:29:35;6.30;99.90
9179;DHT22;71287;48.414;11.478;2023-12-22T10:32:03;6.20;99.90
9179;DHT22;71287;48.414;11.478;2023-12-22T10:34:31;6.10;99.90
9179;DHT22;71287;48.414;11.478;2023-12-22T10:37:00;6.10;99.90
9179;DHT22;71287;48.414;11.478;2023-12-22T10:39:27;6.10;99.90
9179;DHT22;71287;48.414;11.478;2023-12-22T10:41:55;6.10;99.90
9179;DHT22;71287;48.414;11.478;2023-12-22T10:44:24;6.10;99.90
9179;DHT22;71287;48.414;11.478;2023-12-22T10:46:51;6.00;99.90
9179;DHT22;71287;48.414;11.478;2023-12-22T10:49:18;5.90;99.90
9179;DHT22;71287;48.414;11.478;2023-12-22T10:51:45;5.80;99.90
9179;DHT22;71287;48.414;11.478;2023-12-22T10:54:13;5.70;99.90
9179;DHT22;71287;48.414;11.478;2023-12-22T10:56:40;5.60;99.90
9179;DHT22;71287;48.414;11.478;2023-12-22T10:59:08;5.60;99.90
9179;DHT22;71287;48.414;11.478;2023-12-22T11:01:36;5.60;99.90
9179;DHT22;71287;48.414;11.478;2023-12-22T11:04:07;5.50;99.90
9179;DHT22;71287;48.414;11.478;2023-12-22T11:06:35;5.40;99.90
9179;DHT22;71287;48.414;11.478;2023-12-22T11:09:06;5.30;99.90
9179;DHT22;71287;48.414;11.478;2023-12-22T11:11:35;5.30;99.90
9179;DHT22;71287;48.414;11.478;2023-12-22T11:14:02;5.30;99.90
9179;DHT22;71287;48.414;11.478;2023-12-22T11:16:30;5.40;99.90
9179;DHT22;71287;48.414;11.478;2023-12-22T11:18:59;5.40;99.90
9179;DHT22;71287;48.414;11.478;2023-12-22T11:21:27;5.60;99.90
9179;DHT22;71287;48.414;11.478;2023-12-22T11:23:55;5.70;99.90
9179;DHT22;71287;48.414;11.478;2023-12-22T11:26:24;5.80;99.90
9179;DHT22;71287;48.414;11.478;2023-12-22T11:28:52;6.00;99.90
9179;DHT22;71287;48.414;11.478;2023-12-22T11:31:19;6.10;99.90
9179;DHT22;71287;48.414;11.478;2023-12-22T11:33:48;6.20;99.90
9179;DHT22;71287;48.414;11.478;2023-12-22T11:36:16;6.30;99.90
9179;DHT22;71287;48.414;11.478;2023-12-22T11:38:44;6.40;99.90
9179;DHT22;71287;48.414;11.478;2023-12-22T11:41:22;6.40;99.90
9179;DHT22;71287;48.414;11.478;2023-12-22T11:43:53;6.50;99.90
9179;DHT22;71287;48.414;11.478;2023-12-22T11:46:21;6.50;99.90
9179;DHT22;71287;48.414;11.478;2023-12-22T11:48:50;6.50;99.90
9179;DHT22;71287;48.414;11.478;2023-12-22T11:51:18;6.50;99.90
9179;DHT22;71287;48.414;11.478;2023-12-22T11:53:45;6.60;99.90
9179;DHT22;71287;48.414;11.478;2023-12-22T11:56:12;6.60;99.90
9179;DHT22;71287;48.414;11.478;2023-12-22T11:58:41;6.60;99.90
9179;DHT22;71287;48.414;11.478;2023-12-22T12:01:10;6.60;99.90
9179;DHT22;71287;48.414;11.478;2023-12-22T12:03:40;6.70;99.90
9179;DHT22;71287;48.414;11.478;2023-12-22T12:06:32;6.60;99.90
9179;DHT22;71287;48.414;11.478;2023-12-22T12:09:00;6.60;99.90
9179;DHT22;71287;48.414;11.478;2023-12-22T12:14:33;6.70;99.90
9179;DHT22;71287;48.414;11.478;2023-12-22T12:17:07;6.80;99.90
9179;DHT22;71287;48.414;11.478;2023-12-22T12:19:35;6.80;99.90
9179;DHT22;71287;48.414;11.478;2023-12-22T12:22:03;6.80;99.90
9179;DHT22;71287;48.414;11.478;2023-12-22T12:24:31;6.90;99.90
9179;DHT22;71287;48.414;11.478;2023-12-22T12:26:58;6.90;99.90
9179;DHT22;71287;48.414;11.478;2023-12-22T12:29:26;6.90;99.90
9179;DHT22;71287;48.414;11.478;2023-12-22T12:32:02;7.00;99.90
9179;DHT22;71287;48.414;11.478;2023-12-22T12:34:31;7.00;99.90
9179;DHT22;71287;48.414;11.478;2023-12-22T12:36:58;7.00;99.90
9179;DHT22;71287;48.414;11.478;2023-12-22T12:39:30;7.00;99.90
9179;DHT22;71287;48.414;11.478;2023-12-22T12:41:59;7.00;99.90
9179;DHT22;71287;48.414;11.478;2023-12-22T12:44:27;7.00;99.90
9179;DHT22;71287;48.414;11.478;2023-12-22T12:46:54;7.00;99.90
9179;DHT22;71287;48.414;11.478;2023-12-22T12:49:21;7.00;99.90
9179;DHT22;71287;48.414;11.478;2023-12-22T12:51:53;6.90;99.90
9179;DHT22;71287;48.414;11.478;2023-12-22T12:54:20;6.90;99.90
9179;DHT22;71287;48.414;11.478;2023-12-22T12:56:47;6.90;99.90
9179;DHT22;71287;48.414;11.478;2023-12-22T12:59:16;6.90;99.90
9179;DHT22;71287;48.414;11.478;2023-12-22T13:01:44;6.90;99.90
9179;DHT22;71287;48.414;11.478;2023-12-22T13:04:12;6.80;99.90
9179;DHT22;71287;48.414;11.478;2023-12-22T13:06:43;6.80;99.90
9179;DHT22;71287;48.414;11.478;2023-12-22T13:09:12;6.90;99.90
9179;DHT22;71287;48.414;11.478;2023-12-22T13:11:40;6.80;99.90
9179;DHT22;71287;48.414;11.478;2023-12-22T13:14:07;6.80;99.90
9179;DHT22;71287;48.414;11.478;2023-12-22T13:16:34;6.80;99.90
9179;DHT22;71287;48.414;11.478;2023-12-22T13:19:01;6.90;99.90
9179;DHT22;71287;48.414;11.478;2023-12-22T13:21:29;6.90;99.90
9179;DHT22;71287;48.414;11.478;2023-12-22T13:24:10;6.80;99.90
9179;DHT22;71287;48.414;11.478;2023-12-22T13:26:38;6.90;99.90
9179;DHT22;71287;48.414;11.478;2023-12-22T13:29:05;6.80;99.90
9179;DHT22;71287;48.414;11.478;2023-12-22T13:31:33;6.90;99.90
9179;DHT22;71287;48.414;11.478;2023-12-22T13:34:00;6.80;99.90
9179;DHT22;71287;48.414;11.478;2023-12-22T13:36:28;6.80;99.90
9179;DHT22;71287;48.414;11.478;2023-12-22T13:39:00;6.80;99.90
9179;DHT22;71287;48.414;11.478;2023-12-22T13:41:28;6.80;99.90
9179;DHT22;71287;48.414;11.478;2023-12-22T13:43:55;6.80;99.90
9179;DHT22;71287;48.414;11.478;2023-12-22T13:46:27;6.70;99.90
9179;DHT22;71287;48.414;11.478;2023-12-22T13:48:54;6.70;99.90
9179;DHT22;71287;48.414;11.478;2023-12-22T13:51:21;6.70;99.90
9179;DHT22;71287;48.414;11.478;2023-12-22T13:53:48;6.70;99.90
9179;DHT22;71287;48.414;11.478;2023-12-22T13:56:16;6.70;99.90
9179;DHT22;71287;48.414;11.478;2023-12-22T13:58:48;6.60;99.90
9179;DHT22;71287;48.414;11.478;2023-12-22T14:01:16;6.70;99.90
9179;DHT22;71287;48.414;11.478;2023-12-22T14:03:43;6.70;99.90
9179;DHT22;71287;48.414;11.478;2023-12-22T14:06:10;6.70;99.90
9179;DHT22;71287;48.414;11.478;2023-12-22T14:08:39;6.70;99.90
9179;DHT22;71287;48.414;11.478;2023-12-22T14:11:06;6.60;99.90
9179;DHT22;71287;48.414;11.478;2023-12-22T14:13:33;6.60;99.90
9179;DHT22;71287;48.414;11.478;2023-12-22T14:16:06;6.70;99.90
9179;DHT22;71287;48.414;11.478;2023-12-22T14:18:33;6.70;99.90
9179;DHT22;71287;48.414;11.478;2023-12-22T14:20:59;6.70;99.90
9179;DHT22;71287;48.414;11.478;2023-12-22T14:23:26;6.70;99.90
9179;DHT22;71287;48.414;11.478;2023-12-22T14:25:53;6.70;99.90
9179;DHT22;71287;48.414;11.478;2023-12-22T14:28:20;6.70;99.90
9179;DHT22;71287;48.414;11.478;2023-12-22T14:30:47;6.70;99.90
9179;DHT22;71287;48.414;11.478;2023-12-22T14:33:16;6.70;99.90
9179;DHT22;71287;48.414;11.478;2023-12-22T14:35:43;6.70;99.90
9179;DHT22;71287;48.414;11.478;2023-12-22T14:38:10;6.70;99.90
9179;DHT22;71287;48.414;11.478;2023-12-22T14:40:36;6.70;99.90
9179;DHT22;71287;48.414;11.478;2023-12-22T14:43:03;6.80;99.90
9179;DHT22;71287;48.414;11.478;2023-12-22T14:45:30;6.80;99.90
9179;DHT22;71287;48.414;11.478;2023-12-22T14:47:57;6.80;99.90
9179;DHT22;71287;48.414;11.478;2023-12-22T14:50:25;6.80;99.90
9179;DHT22;71287;48.414;11.478;2023-12-22T14:52:52;6.80;99.90
9179;DHT22;71287;48.414;11.478;2023-12-22T14:55:20;6.80;99.90
9179;DHT22;71287;48.414;11.478;2023-12-22T14:57:46;6.80;99.90
9179;DHT22;71287;48.414;11.478;2023-12-22T15:00:14;6.90;99.90
9179;DHT22;71287;48.414;11.478;2023-12-22T15:02:41;6.90;99.90
9179;DHT22;71287;48.414;11.478;2023-12-22T15:05:08;6.90;99.90
9179;DHT22;71287;48.414;11.478;2023-12-22T15:07:37;7.00;99.90
9179;DHT22;71287;48.414;11.478;2023-12-22T15:10:04;7.00;99.90
9179;DHT22;71287;48.414;11.478;2023-12-22T15:12:31;7.00;99.90
9179;DHT22;71287;48.414;11.478;2023-12-22T15:15:02;7.00;99.90
9179;DHT22;71287;48.414;11.478;2023-12-22T15:17:29;7.00;99.90
9179;DHT22;71287;48.414;11.478;2023-12-22T15:19:56;7.00;99.90
9179;DHT22;71287;48.414;11.478;2023-12-22T15:22:23;7.00;99.90
9179;DHT22;71287;48.414;11.478;2023-12-22T15:24:52;7.00;99.90
9179;DHT22;71287;48.414;11.478;2023-12-22T15:27:18;7.10;99.90
9179;DHT22;71287;48.414;11.478;2023-12-22T15:29:45;7.10;99.90
9179;DHT22;71287;48.414;11.478;2023-12-22T15:32:13;7.10;99.90
9179;DHT22;71287;48.414;11.478;2023-12-22T15:34:41;7.10;99.90
9179;DHT22;71287;48.414;11.478;2023-12-22T15:37:08;7.10;99.90
9179;DHT22;71287;48.414;11.478;2023-12-22T15:39:35;7.10;99.90
9179;DHT22;71287;48.414;11.478;2023-12-22T15:42:04;7.20;99.90
9179;DHT22;71287;48.414;11.478;2023-12-22T15:44:31;7.20;99.90
9179;DHT22;71287;48.414;11.478;2023-12-22T15:46:58;7.20;99.90
9179;DHT22;71287;48.414;11.478;2023-12-22T15:49:25;7.20;99.90
9179;DHT22;71287;48.414;11.478;2023-12-22T15:51:53;7.30;99.90